Isla Mujeres, Mexico

1:20 AM EDT on June 26, 2017 (GMT -0400)
Paseo del mar Residencial Campestre Cancun | | Change Station

Elev 26 ft 21.10 °N, 86.85 °W | Updated 4 seconds ago

Mostly Cloudy
Mostly Cloudy
92.1 °F
Feels Like 135 °F
N
0.2
Wind Variable Wind from North
Gusts 2.5 mph

Today
High -- | Low -- °F
--% Chance of Precip.
Yesterday
High -- | Low -- °F
Precip. -- in
Pressure 30.05 in
Visibility 7.0 miles
Clouds Mostly Cloudy 25000 ft
Heat Index 135 °F
Dew Point 90 °F
Humidity 93%
Rainfall 0.00 in
Snow Depth Not available.
7:07 AM 8:32 PM
Waxing Crescent, 7% visible
METAR MMUN 260447Z 05004KT 7SM BKN250 26/26 A3005 RMK 8/008 SC
Pressure 30.05 in
Visibility 7.0 miles
Clouds Mostly Cloudy 25000 ft
Heat Index 135 °F
Dew Point 90 °F
Humidity 93%
Rainfall 0.00 in
Snow Depth Not available.
7:07 AM 8:32 PM
Waxing Crescent, 7% visible
METAR MMUN 260447Z 05004KT 7SM BKN250 26/26 A3005 RMK 8/008 SC

Get Severe Weather Alerts

Thanks for signing up!

Be on the lookout for a verification email in your inbox.

You'll start receiving the daily forecast at 6 AM.

×

10-Day Weather Forecast

No radar image for this location.
×

Almanac

Astronomy

Jun. 26, 2017 Rise Set
Actual Time
Civil Twilight
Nautical Twilight
Astronomical Twilight
Moon
Length of Visible Light
Length of Day
Tomorrow will be .
, % of the Moon is Illuminated

Today's Extremes

Country Highs Country Lows

Community

WunderPhotos

Category 6

Welcome to Category 6. This is the collective home for Weather Underground's featured writeups by Dr. Jeff Masters (right), Bob Henson (left), Chris Burt, and other regular contributors.

Nearby

Air Quality

  Air Quality AQ Index Pollutant
Not available.

Snow Depth

Station Depth Elevation

Earthquake Activity

City Distance Mag. Time & Date
Minimum magnitude displayed is 2.5.

Coastal Water Temperatures

Place Temperature

Stations

Nearby Weather Stations

Station Location Temp. Windchill Dew Point Humidity Wind Precip. Elev Updated Type